Cachoeira Paulista, Brazil
Current Conditions -  °F | °C
As of 2:00 PM on Monday 22 Dec 2014 (Local Time) from SBGW Reporting Station
Rain Showers Rain Showers  
Wind Chill: 88°   Ceiling: 4000
Heat Index: 93°   Visibility: 6mi
Dew Point: 70°   Wind: 7mph
Humidity: 55%   Direction: 330°NNW
Pressure: 29.88"   Gusts: NA
Location:  22.67°S, 45.01°W
Report Text: SBGW 221600Z 33006KT 280V060 9999 VCSH SCT025 FEW030TCU BKN040 31/21 Q1012
Loading
Personal Weather Stations






























Interactive Weather Map New forecast layout! Learn more

10-Day Weather Forecast

Advertisements
Track Severe Weather on mobile